createdAt,value
2019-03-01T00:00:37.295Z,13.76
2019-03-01T00:03:10.474Z,13.73
2019-03-01T00:06:28.419Z,13.65
2019-03-01T00:10:01.426Z,13.62
2019-03-01T00:14:07.057Z,13.57
2019-03-01T00:17:48.996Z,13.51
2019-03-01T00:21:05.935Z,13.46
2019-03-01T00:24:47.047Z,13.44
2019-03-01T00:28:12.731Z,13.44
2019-03-01T00:31:16.028Z,13.47
2019-03-01T00:34:48.883Z,13.47
2019-03-01T00:38:11.574Z,13.48
2019-03-01T00:41:43.125Z,13.46
2019-03-01T00:44:31.938Z,13.46
2019-03-01T00:47:10.931Z,13.46
2019-03-01T00:49:42.653Z,13.45
2019-03-01T00:52:15.002Z,13.46
2019-03-01T00:54:47.271Z,13.46
2019-03-01T00:57:18.941Z,13.45
2019-03-01T00:59:50.581Z,13.47
2019-03-01T01:02:22.388Z,13.49
2019-03-01T01:04:54.017Z,13.51
2019-03-01T01:07:25.732Z,13.53
2019-03-01T01:09:57.711Z,13.53
2019-03-01T01:12:29.366Z,13.53
2019-03-01T01:15:01.098Z,13.52
2019-03-01T01:17:32.764Z,13.52
2019-03-01T01:20:04.865Z,13.51
2019-03-01T01:22:36.529Z,13.53
2019-03-01T01:25:08.609Z,13.54
2019-03-01T01:27:41.106Z,13.54
2019-03-01T01:30:13.688Z,13.56
2019-03-01T01:32:45.363Z,13.56
2019-03-01T01:35:16.989Z,13.57
2019-03-01T01:37:49.300Z,13.56
2019-03-01T01:40:21.287Z,13.56
2019-03-01T01:42:52.908Z,13.55
2019-03-01T01:45:24.558Z,13.53
2019-03-01T01:47:56.153Z,13.52
2019-03-01T01:50:27.763Z,13.53
2019-03-01T01:53:00.386Z,13.53
2019-03-01T01:55:32.372Z,13.56
2019-03-01T01:58:04.018Z,13.54
2019-03-01T02:00:35.734Z,13.53
2019-03-01T02:03:08.443Z,13.53
2019-03-01T02:05:40.136Z,13.48
2019-03-01T02:08:11.865Z,13.46
2019-03-01T02:10:44.017Z,13.45
2019-03-01T02:13:15.803Z,13.43
2019-03-01T02:15:47.452Z,13.42
2019-03-01T02:18:19.152Z,13.39
2019-03-01T02:20:50.909Z,13.38
2019-03-01T02:23:22.608Z,13.37
2019-03-01T02:25:54.780Z,13.35
2019-03-01T02:28:26.531Z,13.36
2019-03-01T02:31:00.147Z,13.33
2019-03-01T02:33:31.874Z,13.31
2019-03-01T02:36:03.474Z,13.29
2019-03-01T02:38:36.076Z,13.27
2019-03-01T02:41:07.666Z,13.28
2019-03-01T02:43:39.750Z,13.27
2019-03-01T02:46:11.621Z,13.27
2019-03-01T02:48:43.287Z,13.27
2019-03-01T02:51:14.977Z,13.28
2019-03-01T02:53:46.668Z,13.30
2019-03-01T02:56:18.308Z,13.32
2019-03-01T02:58:50.402Z,13.31
2019-03-01T03:01:22.022Z,13.29
2019-03-01T03:03:53.654Z,13.29
2019-03-01T03:06:39.502Z,13.27
2019-03-01T03:09:12.133Z,13.26
2019-03-01T03:11:43.731Z,13.25
2019-03-01T03:14:15.829Z,13.22
2019-03-01T03:16:47.461Z,13.19
2019-03-01T03:19:19.699Z,13.15
2019-03-01T03:21:51.380Z,13.12
2019-03-01T03:24:23.072Z,13.10
2019-03-01T03:26:54.695Z,13.06
2019-03-01T03:29:26.937Z,13.06
2019-03-01T03:31:58.723Z,13.04
2019-03-01T03:34:30.741Z,13.04
2019-03-01T03:37:03.321Z,13.06
2019-03-01T03:39:34.900Z,13.07
2019-03-01T03:42:06.739Z,13.08
2019-03-01T03:44:38.472Z,13.10
2019-03-01T03:47:10.197Z,13.10
2019-03-01T03:49:42.262Z,13.10
2019-03-01T03:52:13.885Z,13.09
2019-03-01T03:54:45.554Z,13.09
2019-03-01T03:57:17.197Z,13.07
2019-03-01T03:59:49.109Z,13.05
2019-03-01T04:02:20.756Z,13.05
2019-03-01T04:04:57.462Z,13.04
2019-03-01T04:07:29.169Z,13.05
2019-03-01T04:10:00.822Z,13.06
2019-03-01T04:12:32.470Z,13.07
2019-03-01T04:15:04.414Z,13.04
2019-03-01T04:17:36.035Z,13.04
2019-03-01T04:20:10.639Z,13.04
2019-03-01T04:22:42.346Z,13.06
2019-03-01T04:25:14.079Z,13.04
2019-03-01T04:27:45.737Z,13.04
2019-03-01T04:30:18.338Z,13.02
2019-03-01T04:32:49.994Z,13.02
2019-03-01T04:35:22.448Z,13.04
2019-03-01T04:37:54.721Z,13.07
2019-03-01T04:40:26.594Z,13.08
2019-03-01T04:42:58.386Z,13.06
2019-03-01T04:45:30.377Z,13.08
2019-03-01T04:48:01.994Z,13.09
2019-03-01T04:50:33.661Z,13.07
2019-03-01T04:53:05.751Z,13.07
2019-03-01T04:55:37.532Z,13.06
2019-03-01T04:58:09.176Z,13.04
2019-03-01T05:00:40.856Z,13.02
2019-03-01T05:03:12.479Z,12.99
2019-03-01T05:05:44.128Z,12.96
2019-03-01T05:08:16.379Z,12.92
2019-03-01T05:10:48.076Z,12.92
2019-03-01T05:13:19.765Z,12.87
2019-03-01T05:15:51.352Z,12.82
2019-03-01T05:18:23.003Z,12.81
2019-03-01T05:20:54.664Z,12.80
2019-03-01T05:23:26.937Z,12.78
2019-03-01T05:25:58.596Z,12.76
2019-03-01T05:28:30.248Z,12.74
2019-03-01T05:31:02.009Z,12.75
2019-03-01T05:33:33.655Z,12.73
2019-03-01T05:36:05.288Z,12.71
2019-03-01T05:38:38.213Z,12.70
2019-03-01T05:41:09.886Z,12.71
2019-03-01T05:43:41.555Z,12.72
2019-03-01T05:46:13.167Z,12.73
2019-03-01T05:48:44.942Z,12.71
2019-03-01T05:51:16.619Z,12.71
2019-03-01T05:53:48.890Z,12.71
2019-03-01T05:56:20.620Z,12.70
2019-03-01T05:59:25.724Z,12.67
2019-03-01T06:02:49.090Z,12.66
2019-03-01T06:05:38.036Z,12.61
2019-03-01T06:09:28.614Z,12.55
2019-03-01T06:13:01.439Z,12.54
2019-03-01T06:16:18.585Z,12.50
2019-03-01T06:19:34.728Z,12.48
2019-03-01T06:22:51.401Z,12.47
2019-03-01T06:26:12.128Z,12.50
2019-03-01T06:29:15.169Z,12.52
2019-03-01T06:32:49.890Z,12.51
2019-03-01T06:36:04.628Z,12.52
2019-03-01T06:39:58.137Z,12.52
2019-03-01T06:43:29.146Z,12.51
2019-03-01T06:46:38.916Z,12.51
2019-03-01T06:49:35.845Z,12.48
2019-03-01T06:52:07.585Z,12.45
2019-03-01T06:54:39.191Z,12.46
2019-03-01T06:57:11.103Z,12.48
2019-03-01T06:59:42.792Z,12.50
2019-03-01T07:02:19.253Z,12.51
2019-03-01T07:04:50.970Z,12.52
2019-03-01T07:07:22.643Z,12.54
2019-03-01T07:09:54.256Z,12.56
2019-03-01T07:12:26.140Z,12.60
2019-03-01T07:14:57.814Z,12.59
2019-03-01T07:17:29.716Z,12.62
2019-03-01T07:20:01.861Z,12.64
2019-03-01T07:22:33.528Z,12.67
2019-03-01T07:25:05.313Z,12.68
2019-03-01T07:27:37.146Z,12.68
2019-03-01T07:30:09.229Z,12.70
2019-03-01T07:32:41.039Z,12.71
2019-03-01T07:35:13.251Z,12.74
2019-03-01T07:37:45.599Z,12.72
2019-03-01T07:40:17.294Z,12.72
2019-03-01T07:42:49.043Z,12.71
2019-03-01T07:45:20.912Z,12.71
2019-03-01T07:47:52.575Z,12.70
2019-03-01T07:50:24.710Z,12.67
2019-03-01T07:52:56.551Z,12.70
2019-03-01T07:55:29.363Z,12.72
2019-03-01T07:58:01.193Z,12.75
2019-03-01T08:00:33.079Z,12.77
2019-03-01T08:03:04.899Z,12.80
2019-03-01T08:05:39.367Z,12.81
2019-03-01T08:08:10.323Z,12.88
2019-03-01T08:10:42.054Z,12.95
2019-03-01T08:13:14.739Z,12.98
2019-03-01T08:15:47.094Z,13.04
2019-03-01T08:18:18.871Z,13.09
2019-03-01T08:20:51.130Z,13.12
2019-03-01T08:23:23.173Z,13.18
2019-03-01T08:25:55.566Z,13.21
2019-03-01T08:28:28.352Z,13.22
2019-03-01T08:31:00.050Z,13.25
2019-03-01T08:33:31.683Z,13.28
2019-03-01T08:36:05.702Z,13.33
2019-03-01T08:38:36.936Z,13.35
2019-03-01T08:41:06.563Z,13.38
2019-03-01T08:43:40.764Z,13.43
2019-03-01T08:46:12.660Z,13.45
2019-03-01T08:48:44.386Z,13.49
2019-03-01T08:51:16.701Z,13.56
2019-03-01T08:53:50.957Z,13.58
2019-03-01T08:56:26.224Z,13.60
2019-03-01T08:58:55.217Z,13.58
2019-03-01T09:01:27.159Z,13.59
2019-03-01T09:04:03.354Z,13.57
2019-03-01T09:06:35.710Z,13.58
2019-03-01T09:09:08.895Z,13.62
2019-03-01T09:11:41.673Z,13.66
2019-03-01T09:14:13.972Z,13.72
2019-03-01T09:16:45.705Z,13.77
2019-03-01T09:19:17.350Z,13.83
2019-03-01T09:21:50.970Z,13.89
2019-03-01T09:24:25.631Z,13.92
2019-03-01T09:26:56.231Z,13.95
2019-03-01T09:29:27.841Z,13.95
2019-03-01T09:31:59.638Z,13.95
2019-03-01T09:34:32.078Z,13.96
2019-03-01T09:37:05.582Z,13.98
2019-03-01T09:39:37.773Z,13.97
2019-03-01T09:42:12.384Z,13.99
2019-03-01T09:44:42.893Z,13.98
2019-03-01T09:47:14.578Z,13.99
2019-03-01T09:49:46.377Z,13.99
2019-03-01T09:52:20.383Z,14.00
2019-03-01T09:54:53.429Z,14.04
2019-03-01T09:57:25.252Z,14.03
2019-03-01T09:59:57.115Z,14.02
2019-03-01T10:02:28.746Z,13.99
2019-03-01T10:05:00.621Z,13.97
2019-03-01T10:07:32.295Z,13.96
2019-03-01T10:10:04.875Z,13.96
2019-03-01T10:12:36.638Z,13.97
2019-03-01T10:15:10.789Z,13.96
2019-03-01T10:17:42.443Z,13.96
2019-03-01T10:20:15.115Z,13.98
2019-03-01T10:22:46.845Z,13.99
2019-03-01T10:25:19.410Z,14.01
2019-03-01T10:27:51.140Z,14.04
2019-03-01T10:30:23.262Z,14.05
2019-03-01T10:32:55.125Z,14.10
2019-03-01T10:35:26.827Z,14.16
2019-03-01T10:37:59.174Z,14.25
2019-03-01T10:40:31.507Z,14.28
2019-03-01T10:43:03.185Z,14.30
2019-03-01T10:45:35.226Z,14.32
2019-03-01T10:48:07.314Z,14.32
2019-03-01T10:50:38.984Z,14.31
2019-03-01T10:53:10.663Z,14.32
2019-03-01T10:55:43.408Z,14.35
2019-03-01T10:58:15.078Z,14.38
2019-03-01T11:00:46.874Z,14.39
2019-03-01T11:03:18.539Z,14.43
2019-03-01T11:05:50.418Z,14.43
2019-03-01T11:08:22.099Z,14.43
2019-03-01T11:10:54.564Z,14.44
2019-03-01T11:13:26.258Z,14.46
2019-03-01T11:15:57.935Z,14.48
2019-03-01T11:18:29.655Z,14.52
2019-03-01T11:21:01.305Z,14.54
2019-03-01T11:23:33.176Z,14.56
2019-03-01T11:26:04.878Z,14.60
2019-03-01T11:28:37.396Z,14.62
2019-03-01T11:31:09.098Z,14.63
2019-03-01T11:33:40.939Z,14.61
2019-03-01T11:36:13.195Z,14.60
2019-03-01T11:38:45.567Z,14.57
2019-03-01T11:41:17.318Z,14.54
2019-03-01T11:43:49.637Z,14.51
2019-03-01T11:46:21.320Z,14.50
2019-03-01T11:48:53.003Z,14.49
2019-03-01T11:51:24.718Z,14.49
2019-03-01T11:53:56.374Z,14.48
2019-03-01T11:56:28.162Z,14.50
2019-03-01T11:59:00.539Z,14.51
2019-03-01T12:01:33.144Z,14.57
2019-03-01T12:04:06.337Z,14.64
2019-03-01T12:06:38.053Z,14.71
2019-03-01T12:09:10.225Z,14.85
2019-03-01T12:11:41.940Z,14.93
2019-03-01T12:14:14.276Z,15.01
2019-03-01T12:16:45.980Z,15.07
2019-03-01T12:19:18.090Z,15.14
2019-03-01T12:21:50.057Z,15.20
2019-03-01T12:24:21.954Z,15.21
2019-03-01T12:26:53.683Z,15.18
2019-03-01T12:29:26.045Z,15.19
2019-03-01T12:31:58.608Z,15.23
2019-03-01T12:34:30.527Z,15.29
2019-03-01T12:37:03.037Z,15.36
2019-03-01T12:39:34.788Z,15.40
2019-03-01T12:42:06.425Z,15.40
2019-03-01T12:44:39.102Z,15.41
2019-03-01T12:47:10.791Z,15.43
2019-03-01T12:49:42.787Z,15.46
2019-03-01T12:52:14.532Z,15.51
2019-03-01T12:54:46.450Z,15.59
2019-03-01T12:57:18.231Z,15.62
2019-03-01T12:59:51.358Z,15.66
2019-03-01T13:02:23.118Z,15.67
2019-03-01T13:04:55.171Z,15.67
2019-03-01T13:07:27.558Z,15.67
2019-03-01T13:10:03.208Z,15.62
2019-03-01T13:12:32.922Z,15.58
2019-03-01T13:15:05.084Z,15.57
2019-03-01T13:17:37.437Z,15.59
2019-03-01T13:20:13.151Z,15.63
2019-03-01T13:22:45.431Z,15.67
2019-03-01T13:25:17.289Z,15.75
2019-03-01T13:27:52.369Z,15.85
2019-03-01T13:30:23.072Z,15.93
2019-03-01T13:32:55.167Z,15.97
2019-03-01T13:35:27.621Z,16.02
2019-03-01T13:38:00.107Z,16.07
2019-03-01T13:40:31.912Z,16.07
2019-03-01T13:43:04.149Z,16.05
2019-03-01T13:45:35.902Z,16.06
2019-03-01T13:48:07.729Z,16.06
2019-03-01T13:50:41.615Z,16.08
2019-03-01T13:53:14.113Z,16.12
2019-03-01T13:55:46.551Z,16.16
2019-03-01T13:58:20.423Z,16.21
2019-03-01T14:00:52.327Z,16.28
2019-03-01T14:03:27.474Z,16.36
2019-03-01T14:05:57.565Z,16.42
2019-03-01T14:08:29.331Z,16.46
2019-03-01T14:11:01.000Z,16.44
2019-03-01T14:13:33.071Z,16.39
2019-03-01T14:16:04.728Z,16.30
2019-03-01T14:18:37.675Z,16.21
2019-03-01T14:21:09.624Z,16.12
2019-03-01T14:23:41.463Z,16.00
2019-03-01T14:26:15.183Z,15.85
2019-03-01T14:28:47.492Z,15.70
2019-03-01T14:31:19.332Z,15.57
2019-03-01T14:33:51.755Z,15.43
2019-03-01T14:36:23.652Z,15.30
2019-03-01T14:38:56.230Z,15.16
2019-03-01T14:41:28.212Z,15.05
2019-03-01T14:44:00.638Z,14.95
2019-03-01T14:46:32.341Z,14.82
2019-03-01T14:49:04.111Z,14.77
2019-03-01T14:51:35.794Z,14.74
2019-03-01T14:54:09.907Z,14.72
2019-03-01T14:56:47.541Z,14.65
2019-03-01T14:59:35.129Z,14.62
2019-03-01T15:02:45.849Z,14.63
2019-03-01T15:05:19.808Z,14.66
2019-03-01T15:07:51.102Z,14.65
2019-03-01T15:10:22.844Z,14.64
2019-03-01T15:12:58.000Z,14.65
2019-03-01T15:20:32.363Z,14.57
2019-03-01T15:23:04.435Z,14.56
2019-03-01T15:25:36.349Z,14.52
2019-03-01T15:28:08.077Z,14.51
2019-03-01T15:30:42.578Z,14.52
2019-03-01T15:33:13.365Z,14.49
2019-03-01T15:35:45.214Z,14.46
2019-03-01T15:38:17.720Z,14.43
2019-03-01T15:40:49.603Z,14.42
2019-03-01T15:43:21.601Z,14.39
2019-03-01T15:45:53.320Z,14.39
2019-03-01T15:48:24.973Z,14.36
2019-03-01T15:50:59.125Z,14.36
2019-03-01T15:53:30.603Z,14.37
2019-03-01T15:56:05.912Z,14.37
2019-03-01T15:58:35.938Z,14.35
2019-03-01T16:01:12.124Z,14.34
2019-03-01T16:03:44.603Z,14.34
2019-03-01T16:06:19.194Z,14.35
2019-03-01T16:08:50.149Z,14.37
2019-03-01T16:11:21.932Z,14.36
2019-03-01T16:13:53.684Z,14.38
2019-03-01T16:16:25.750Z,14.40
2019-03-01T16:18:57.521Z,14.40
2019-03-01T16:21:29.417Z,14.40
2019-03-01T16:24:01.184Z,14.39
2019-03-01T16:26:33.617Z,14.39
2019-03-01T16:29:07.374Z,14.37
2019-03-01T16:31:39.792Z,14.36
2019-03-01T16:34:12.073Z,14.33
2019-03-01T16:36:51.373Z,14.28
2019-03-01T16:39:27.935Z,14.23
2019-03-01T16:41:59.696Z,14.20
2019-03-01T16:44:31.621Z,14.14
2019-03-01T16:47:03.554Z,14.11
2019-03-01T16:49:37.274Z,14.06
2019-03-01T16:52:09.006Z,14.02
2019-03-01T16:54:40.771Z,13.97
2019-03-01T16:57:15.005Z,13.93
2019-03-01T16:59:46.040Z,13.90
2019-03-01T17:02:17.830Z,13.87
2019-03-01T17:04:50.946Z,13.84
2019-03-01T17:07:25.093Z,13.83
2019-03-01T17:09:56.450Z,13.81
2019-03-01T17:12:28.328Z,13.80
2019-03-01T17:15:01.417Z,13.81
2019-03-01T17:17:36.834Z,13.81
2019-03-01T17:20:09.824Z,13.77
2019-03-01T17:22:41.774Z,13.73
2019-03-01T17:25:14.775Z,13.71
2019-03-01T17:27:47.026Z,13.66
2019-03-01T17:30:19.985Z,13.60
2019-03-01T17:32:51.777Z,13.53
2019-03-01T17:35:24.012Z,13.47
2019-03-01T17:37:55.768Z,13.43
2019-03-01T17:40:29.276Z,13.39
2019-03-01T17:43:01.505Z,13.37
2019-03-01T17:45:33.248Z,13.36
2019-03-01T17:48:05.037Z,13.35
2019-03-01T17:50:37.696Z,13.35
2019-03-01T17:53:10.437Z,13.34
2019-03-01T17:55:42.387Z,13.33
2019-03-01T17:58:14.145Z,13.32
2019-03-01T18:00:47.735Z,13.32
2019-03-01T18:03:19.845Z,13.31
2019-03-01T18:05:51.941Z,13.27
2019-03-01T18:08:23.674Z,13.23
2019-03-01T18:10:55.437Z,13.18
2019-03-01T18:13:27.369Z,13.12
2019-03-01T18:15:59.358Z,13.10
2019-03-01T18:18:31.064Z,13.08
2019-03-01T18:21:03.258Z,13.08
2019-03-01T18:23:38.012Z,13.08
2019-03-01T18:26:08.526Z,13.09
2019-03-01T18:28:40.245Z,13.11
2019-03-01T18:31:12.046Z,13.13
2019-03-01T18:33:43.959Z,13.13
2019-03-01T18:36:16.163Z,13.14
2019-03-01T18:38:48.654Z,13.14
2019-03-01T18:41:24.014Z,13.12
2019-03-01T18:43:54.421Z,13.11
2019-03-01T18:46:26.292Z,13.09
2019-03-01T18:48:58.156Z,13.09
2019-03-01T18:51:29.890Z,13.08
2019-03-01T18:54:04.000Z,13.07
2019-03-01T18:56:35.903Z,13.05
2019-03-01T18:59:07.838Z,13.03
2019-03-01T19:01:42.981Z,13.02
2019-03-01T19:04:16.717Z,13.00
2019-03-01T19:06:48.401Z,13.02
2019-03-01T19:09:21.223Z,13.01
2019-03-01T19:11:52.968Z,13.03
2019-03-01T19:14:24.723Z,13.03
2019-03-01T19:16:56.569Z,13.03
2019-03-01T19:19:30.636Z,13.02
2019-03-01T19:22:01.908Z,13.01
2019-03-01T19:24:42.702Z,13.01
2019-03-01T19:27:09.297Z,13.02
2019-03-01T19:29:41.698Z,13.02
2019-03-01T19:32:13.635Z,13.02
2019-03-01T19:34:45.464Z,13.02
2019-03-01T19:37:17.278Z,13.03
2019-03-01T19:39:50.485Z,13.02
2019-03-01T19:42:22.424Z,13.01
2019-03-01T19:44:54.697Z,12.99
2019-03-01T19:47:27.256Z,12.98
2019-03-01T19:49:59.379Z,12.96
2019-03-01T19:52:31.148Z,12.96
2019-03-01T19:55:03.310Z,12.97
2019-03-01T19:57:36.352Z,12.97
2019-03-01T20:00:13.527Z,12.97
2019-03-01T20:02:45.349Z,12.96
2019-03-01T20:05:22.955Z,12.96
2019-03-01T20:07:55.630Z,12.95
2019-03-01T20:10:28.096Z,12.94
2019-03-01T20:13:00.016Z,12.95
2019-03-01T20:15:31.851Z,12.95
2019-03-01T20:18:06.636Z,12.95
2019-03-01T20:20:37.218Z,12.96
2019-03-01T20:23:09.071Z,12.95
2019-03-01T20:25:41.333Z,12.95
2019-03-01T20:28:15.196Z,12.96
2019-03-01T20:30:46.981Z,12.96
2019-03-01T20:33:18.928Z,12.98
2019-03-01T20:35:50.681Z,12.98
2019-03-01T20:38:23.093Z,12.99
2019-03-01T20:40:55.536Z,12.97
2019-03-01T20:43:27.410Z,12.96
2019-03-01T20:45:59.521Z,12.94
2019-03-01T20:48:32.245Z,12.94
2019-03-01T20:51:06.141Z,12.94
2019-03-01T20:53:37.815Z,12.95
2019-03-01T20:56:13.423Z,12.94
2019-03-01T20:58:43.563Z,12.93
2019-03-01T21:01:15.478Z,12.90
2019-03-01T21:03:47.504Z,12.88
2019-03-01T21:06:19.832Z,12.86
2019-03-01T21:08:51.752Z,12.85
2019-03-01T21:11:25.403Z,12.82
2019-03-01T21:13:57.403Z,12.83
2019-03-01T21:16:29.304Z,12.81
2019-03-01T21:19:01.110Z,12.81
2019-03-01T21:21:32.837Z,12.82
2019-03-01T21:24:04.730Z,12.82
2019-03-01T21:26:36.394Z,12.81
2019-03-01T21:29:08.982Z,12.82
2019-03-01T21:31:42.124Z,12.82
2019-03-01T21:34:14.908Z,12.81
2019-03-01T21:36:46.761Z,12.82
2019-03-01T21:39:20.620Z,12.81
2019-03-01T21:41:52.991Z,12.82
2019-03-01T21:44:25.146Z,12.84
2019-03-01T21:46:56.869Z,12.84
2019-03-01T21:49:28.692Z,12.86
2019-03-01T21:52:00.530Z,12.86
2019-03-01T21:54:32.363Z,12.87
2019-03-01T21:57:04.151Z,12.86
2019-03-01T21:59:36.322Z,12.85
2019-03-01T22:02:08.045Z,12.85
2019-03-01T22:04:39.791Z,12.83
2019-03-01T22:07:11.509Z,12.81
2019-03-01T22:09:43.314Z,12.78
2019-03-01T22:12:15.006Z,12.76
2019-03-01T22:14:49.081Z,12.73
2019-03-01T22:17:20.408Z,12.73
2019-03-01T22:19:52.317Z,12.73
2019-03-01T22:22:24.060Z,12.73
2019-03-01T22:24:58.647Z,12.72
2019-03-01T22:27:29.414Z,12.71
2019-03-01T22:30:01.259Z,12.71
2019-03-01T22:32:33.012Z,12.71
2019-03-01T22:35:08.454Z,12.71
2019-03-01T22:37:38.382Z,12.71
2019-03-01T22:40:11.316Z,12.72
2019-03-01T22:42:45.832Z,12.72
2019-03-01T22:45:16.937Z,12.71
2019-03-01T22:47:48.631Z,12.72
2019-03-01T22:50:20.993Z,12.72
2019-03-01T22:52:52.837Z,12.73
2019-03-01T22:55:24.891Z,12.73
2019-03-01T22:57:57.746Z,12.73
2019-03-01T23:01:20.944Z,12.74
2019-03-01T23:03:58.941Z,12.73
2019-03-01T23:06:30.696Z,12.70
2019-03-01T23:09:02.916Z,12.70
2019-03-01T23:11:34.683Z,12.71
2019-03-01T23:14:06.579Z,12.73
2019-03-01T23:16:38.373Z,12.75
2019-03-01T23:19:12.731Z,12.76
2019-03-01T23:21:43.486Z,12.74
2019-03-01T23:24:15.148Z,12.73
2019-03-01T23:26:46.826Z,12.72
2019-03-01T23:29:19.937Z,12.73
2019-03-01T23:31:52.002Z,12.75
2019-03-01T23:34:23.677Z,12.75
2019-03-01T23:36:55.415Z,12.74
2019-03-01T23:39:27.209Z,12.73
2019-03-01T23:41:59.008Z,12.71
2019-03-01T23:44:30.733Z,12.69
2019-03-01T23:47:04.391Z,12.65
2019-03-01T23:49:36.112Z,12.62
2019-03-01T23:52:07.771Z,12.60
2019-03-01T23:54:40.602Z,12.58
2019-03-01T23:57:13.218Z,12.56
2019-03-01T23:59:44.936Z,12.54
